createdAt,value
2019-04-14T00:01:47.708Z,1.50
2019-04-14T00:04:40.419Z,1.60
2019-04-14T00:07:10.190Z,1.60
2019-04-14T00:09:40.070Z,1.60
2019-04-14T00:12:11.954Z,1.60
2019-04-14T00:14:41.002Z,1.60
2019-04-14T00:17:10.799Z,1.60
2019-04-14T00:19:41.212Z,1.60
2019-04-14T00:22:11.580Z,1.60
2019-04-14T00:24:40.686Z,1.60
2019-04-14T00:27:10.652Z,1.60
2019-04-14T00:29:39.686Z,1.70
2019-04-14T00:32:09.561Z,1.60
2019-04-14T00:34:57.196Z,1.60
2019-04-14T00:37:35.910Z,1.60
2019-04-14T00:40:15.389Z,1.60
2019-04-14T00:43:13.538Z,1.60
2019-04-14T00:46:10.007Z,1.60
2019-04-14T00:48:38.859Z,1.60
2019-04-14T00:51:09.052Z,1.60
2019-04-14T00:53:40.284Z,1.60
2019-04-14T00:56:10.465Z,1.60
2019-04-14T00:58:39.666Z,1.60
2019-04-14T01:01:09.039Z,1.60
2019-04-14T01:03:37.962Z,1.60
2019-04-14T01:06:07.671Z,1.70
2019-04-14T01:08:36.618Z,1.60
2019-04-14T01:11:05.495Z,1.60
2019-04-14T01:13:35.310Z,1.60
2019-04-14T01:16:11.568Z,1.60
2019-04-14T01:18:35.069Z,1.60
2019-04-14T01:21:04.605Z,1.60
2019-04-14T01:23:34.704Z,1.60
2019-04-14T01:26:05.023Z,1.60
2019-04-14T01:28:35.354Z,1.60
2019-04-14T01:31:05.506Z,1.70
2019-04-14T01:33:35.593Z,1.70
2019-04-14T01:36:05.954Z,1.70
2019-04-14T01:38:36.369Z,1.70
2019-04-14T01:41:06.332Z,1.60
2019-04-14T01:43:53.809Z,1.60
2019-04-14T01:46:28.049Z,1.60
2019-04-14T01:48:54.115Z,1.60
2019-04-14T01:51:44.737Z,1.60
2019-04-14T01:54:32.377Z,1.60
2019-04-14T01:57:19.973Z,1.60
2019-04-14T01:59:50.127Z,1.50
2019-04-14T02:02:22.696Z,1.40
2019-04-14T02:04:55.325Z,1.40
2019-04-14T02:07:25.834Z,1.40
2019-04-14T02:09:57.474Z,1.40
2019-04-14T02:12:27.785Z,1.30
2019-04-14T02:15:18.324Z,1.20
2019-04-14T02:17:48.137Z,1.20
2019-04-14T02:20:18.485Z,1.20
2019-04-14T02:22:48.395Z,1.10
2019-04-14T02:25:18.872Z,1.10
2019-04-14T02:27:47.798Z,1.10
2019-04-14T02:30:22.985Z,1.10
2019-04-14T02:33:17.277Z,1.10
2019-04-14T02:35:59.705Z,1.10
2019-04-14T02:38:23.284Z,1.20
2019-04-14T02:40:57.974Z,1.20
2019-04-14T02:43:30.356Z,1.20
2019-04-14T02:51:07.193Z,1.30
2019-04-14T02:53:39.430Z,1.20
2019-04-14T02:58:37.853Z,1.20
2019-04-14T03:01:09.978Z,1.20
2019-04-14T03:03:33.983Z,1.20
2019-04-14T03:11:09.642Z,1.20
2019-04-14T03:13:35.295Z,1.20
2019-04-14T03:21:34.518Z,1.30
2019-04-14T03:24:31.703Z,1.30
2019-04-14T03:27:17.948Z,1.20
2019-04-14T03:29:52.080Z,1.30
2019-04-14T03:32:53.112Z,1.30
2019-04-14T03:35:24.928Z,1.20
2019-04-14T03:37:37.702Z,1.30
2019-04-14T03:44:48.738Z,1.20
2019-04-14T03:47:25.783Z,1.20
2019-04-14T03:49:56.496Z,1.10
2019-04-14T03:52:31.636Z,1.10
2019-04-14T03:54:44.051Z,1.10
2019-04-14T03:56:59.806Z,1.00
2019-04-14T03:59:30.188Z,1.00
2019-04-14T04:01:59.265Z,1.00
2019-04-14T04:04:28.010Z,1.00
2019-04-14T04:06:57.472Z,1.00
2019-04-14T04:09:34.339Z,1.10
2019-04-14T04:12:03.207Z,1.10
2019-04-14T04:14:32.023Z,1.00
2019-04-14T04:17:36.214Z,1.10
2019-04-14T04:20:31.427Z,1.10
2019-04-14T04:23:09.588Z,1.10
2019-04-14T04:26:00.391Z,1.10
2019-04-14T04:28:54.326Z,1.00
2019-04-14T04:32:01.323Z,1.00
2019-04-14T04:34:53.410Z,1.00
2019-04-14T04:37:43.522Z,1.10
2019-04-14T04:40:17.931Z,1.10
2019-04-14T04:42:46.859Z,1.00
2019-04-14T04:45:16.995Z,0.90
2019-04-14T04:47:47.006Z,0.90
2019-04-14T04:50:17.075Z,0.80
2019-04-14T04:52:46.005Z,0.80
2019-04-14T04:55:15.586Z,0.70
2019-04-14T04:57:44.502Z,0.70
2019-04-14T05:00:13.680Z,0.70
2019-04-14T05:02:42.509Z,0.70
2019-04-14T05:05:47.164Z,0.70
2019-04-14T05:08:17.405Z,0.70
2019-04-14T05:10:52.466Z,0.70
2019-04-14T05:13:26.947Z,0.70
2019-04-14T05:15:59.951Z,0.70
2019-04-14T05:18:29.061Z,0.70
2019-04-14T05:20:58.161Z,0.70
2019-04-14T05:23:27.802Z,0.80
2019-04-14T05:25:56.709Z,0.90
2019-04-14T05:28:26.701Z,0.90
2019-04-14T05:30:56.774Z,0.90
2019-04-14T05:33:27.053Z,1.00
2019-04-14T05:35:57.343Z,1.00
2019-04-14T05:38:29.349Z,1.10
2019-04-14T05:40:58.243Z,1.10
2019-04-14T05:43:36.965Z,1.20
2019-04-14T05:45:59.022Z,1.30
2019-04-14T05:48:29.268Z,1.30
2019-04-14T05:50:58.275Z,1.30
2019-04-14T05:53:28.273Z,1.40
2019-04-14T05:55:57.310Z,1.40
2019-04-14T05:58:26.092Z,1.50
2019-04-14T06:00:55.831Z,1.60
2019-04-14T06:03:25.682Z,1.50
2019-04-14T06:05:54.582Z,1.50
2019-04-14T06:08:23.404Z,1.50
2019-04-14T06:10:52.197Z,1.50
2019-04-14T06:13:20.979Z,1.40
2019-04-14T06:15:49.911Z,1.40
2019-04-14T06:18:18.798Z,1.50
2019-04-14T06:20:49.740Z,1.60
2019-04-14T06:23:18.936Z,1.60
2019-04-14T06:25:49.222Z,1.80
2019-04-14T06:28:18.060Z,1.80
2019-04-14T06:31:21.116Z,1.90
2019-04-14T06:33:55.772Z,1.90
2019-04-14T06:36:41.541Z,1.90
2019-04-14T06:39:19.938Z,2.00
2019-04-14T06:41:48.766Z,2.10
2019-04-14T06:44:17.630Z,2.30
2019-04-14T06:46:46.748Z,2.50
2019-04-14T06:49:15.600Z,2.60
2019-04-14T06:51:44.368Z,2.80
2019-04-14T06:54:13.153Z,3.00
2019-04-14T06:56:41.960Z,3.10
2019-04-14T06:59:10.773Z,3.20
2019-04-14T07:01:39.554Z,3.20
2019-04-14T07:04:08.437Z,3.20
2019-04-14T07:06:37.226Z,3.30
2019-04-14T07:09:07.344Z,3.30
2019-04-14T07:11:36.121Z,3.20
2019-04-14T07:14:05.084Z,3.10
2019-04-14T07:16:33.918Z,3.00
2019-04-14T07:19:02.798Z,3.00
2019-04-14T07:21:31.634Z,3.00
2019-04-14T07:24:00.388Z,3.10
2019-04-14T07:26:29.225Z,3.20
2019-04-14T07:28:58.049Z,3.20
2019-04-14T07:31:48.849Z,3.30
2019-04-14T07:34:39.659Z,3.40
2019-04-14T07:37:33.701Z,3.30
2019-04-14T07:40:11.788Z,3.30
2019-04-14T07:42:51.462Z,3.40
2019-04-14T07:45:30.413Z,3.60
2019-04-14T07:48:08.023Z,3.80
2019-04-14T07:50:51.129Z,4.00
2019-04-14T07:53:37.867Z,4.00
2019-04-14T07:56:25.753Z,4.00
2019-04-14T07:59:26.013Z,4.10
2019-04-14T08:02:01.953Z,4.20
2019-04-14T08:04:33.612Z,4.30
2019-04-14T08:07:02.569Z,4.20
2019-04-14T08:09:32.045Z,4.30
2019-04-14T08:12:00.858Z,4.50
2019-04-14T08:14:29.615Z,4.60
2019-04-14T08:16:58.470Z,4.50
2019-04-14T08:19:27.276Z,4.50
2019-04-14T08:21:56.090Z,4.60
2019-04-14T08:24:24.886Z,4.70
2019-04-14T08:26:53.959Z,5.00
2019-04-14T08:29:22.723Z,5.20
2019-04-14T08:31:51.528Z,5.30
2019-04-14T08:34:20.345Z,5.30
2019-04-14T08:36:49.224Z,5.40
2019-04-14T08:39:18.027Z,5.60
2019-04-14T08:42:11.609Z,5.60
2019-04-14T08:44:45.228Z,5.60
2019-04-14T08:47:42.910Z,5.60
2019-04-14T08:50:39.422Z,5.70
2019-04-14T08:53:15.489Z,5.80
2019-04-14T08:56:06.346Z,6.00
2019-04-14T08:58:46.840Z,6.10
2019-04-14T09:01:35.309Z,6.20
2019-04-14T09:04:13.291Z,6.20
2019-04-14T09:06:46.416Z,6.10
2019-04-14T09:09:54.355Z,6.10
2019-04-14T09:12:25.537Z,6.20
2019-04-14T09:14:57.267Z,6.40
2019-04-14T09:17:25.907Z,6.40
2019-04-14T09:19:54.752Z,6.50
2019-04-14T09:22:23.886Z,6.70
2019-04-14T09:24:53.806Z,6.70
2019-04-14T09:27:22.787Z,6.90
2019-04-14T09:29:52.476Z,6.80
2019-04-14T09:32:22.107Z,6.90
2019-04-14T09:34:50.913Z,7.10
2019-04-14T09:37:19.979Z,7.10
2019-04-14T09:39:48.778Z,7.20
2019-04-14T09:42:17.513Z,7.20
2019-04-14T09:44:46.521Z,7.30
2019-04-14T09:47:15.519Z,7.20
2019-04-14T09:49:44.356Z,7.20
2019-04-14T09:52:13.165Z,7.40
2019-04-14T09:54:41.913Z,7.40
2019-04-14T09:57:10.826Z,7.50
2019-04-14T09:59:39.653Z,7.50
2019-04-14T10:02:08.515Z,7.70
2019-04-14T10:04:38.658Z,7.60
2019-04-14T10:07:07.758Z,7.70
2019-04-14T10:09:36.595Z,7.70
2019-04-14T10:12:07.054Z,7.60
2019-04-14T10:14:35.900Z,7.50
2019-04-14T10:17:05.849Z,7.50
2019-04-14T10:19:35.079Z,7.60
2019-04-14T10:22:05.314Z,7.90
2019-04-14T10:24:34.064Z,8.00
2019-04-14T10:27:03.021Z,8.00
2019-04-14T10:29:33.100Z,8.00
2019-04-14T10:32:02.639Z,8.10
2019-04-14T10:34:31.455Z,8.20
2019-04-14T10:37:00.408Z,8.20
2019-04-14T10:39:29.499Z,8.20
2019-04-14T10:42:00.514Z,8.20
2019-04-14T10:44:30.959Z,8.10
2019-04-14T10:47:04.759Z,8.20
2019-04-14T10:49:39.069Z,8.20
2019-04-14T10:52:08.513Z,8.40
2019-04-14T10:54:37.311Z,8.60
2019-04-14T10:57:06.300Z,8.40
2019-04-14T10:59:35.101Z,8.40
2019-04-14T11:02:04.060Z,8.40
2019-04-14T11:04:34.141Z,8.40
2019-04-14T11:07:06.187Z,8.60
2019-04-14T11:09:34.967Z,8.70
2019-04-14T11:12:04.317Z,8.60
2019-04-14T11:14:33.537Z,8.60
2019-04-14T11:17:02.510Z,8.70
2019-04-14T11:19:31.349Z,8.90
2019-04-14T11:22:00.135Z,9.10
2019-04-14T11:24:29.957Z,9.40
2019-04-14T11:26:58.972Z,9.30
2019-04-14T11:29:27.726Z,9.20
2019-04-14T11:32:15.617Z,9.10
2019-04-14T11:34:50.190Z,8.90
2019-04-14T11:37:38.181Z,9.00
2019-04-14T11:40:12.366Z,9.10
2019-04-14T11:42:51.839Z,9.00
2019-04-14T11:45:12.367Z,8.90
2019-04-14T11:47:42.929Z,8.90
2019-04-14T11:50:12.155Z,9.00
2019-04-14T11:52:40.959Z,8.90
2019-04-14T11:55:09.975Z,9.00
2019-04-14T11:57:41.449Z,9.20
2019-04-14T12:00:25.002Z,9.30
2019-04-14T12:03:06.298Z,9.50
2019-04-14T12:05:58.217Z,9.40
2019-04-14T12:08:41.044Z,9.50
2019-04-14T12:11:10.336Z,9.40
2019-04-14T12:13:39.190Z,9.40
2019-04-14T12:16:08.457Z,9.40
2019-04-14T12:18:37.689Z,9.40
2019-04-14T12:21:06.443Z,9.60
2019-04-14T12:23:35.559Z,9.50
2019-04-14T12:26:08.539Z,9.50
2019-04-14T12:28:38.319Z,9.40
2019-04-14T12:31:08.722Z,9.40
2019-04-14T12:33:37.658Z,9.40
2019-04-14T12:36:10.785Z,9.60
2019-04-14T12:38:39.727Z,9.60
2019-04-14T12:41:12.595Z,9.80
2019-04-14T12:43:46.180Z,9.80
2019-04-14T12:46:33.729Z,9.80
2019-04-14T12:49:16.804Z,10.00
2019-04-14T12:52:03.386Z,10.00
2019-04-14T12:54:32.304Z,9.90
2019-04-14T12:57:01.143Z,10.00
2019-04-14T12:59:29.949Z,10.00
2019-04-14T13:02:17.811Z,9.90
2019-04-14T13:04:46.649Z,9.90
2019-04-14T13:07:15.514Z,9.80
2019-04-14T13:09:44.447Z,9.80
2019-04-14T13:12:13.311Z,9.80
2019-04-14T13:14:42.162Z,9.70
2019-04-14T13:17:11.090Z,9.80
2019-04-14T13:19:39.889Z,9.90
2019-04-14T13:22:08.783Z,9.80
2019-04-14T13:24:37.663Z,10.00
2019-04-14T13:27:06.657Z,9.90
2019-04-14T13:29:35.427Z,10.00
2019-04-14T13:32:05.467Z,9.90
2019-04-14T13:34:34.242Z,10.00
2019-04-14T13:37:03.241Z,10.00
2019-04-14T13:39:32.040Z,10.20
2019-04-14T13:42:03.280Z,10.20
2019-04-14T13:44:33.238Z,10.30
2019-04-14T13:47:11.258Z,10.30
2019-04-14T13:49:40.587Z,10.40
2019-04-14T13:52:09.419Z,10.20
2019-04-14T13:54:38.184Z,10.10
2019-04-14T13:57:07.019Z,9.90
2019-04-14T13:59:36.091Z,9.90
2019-04-14T14:02:05.132Z,9.90
2019-04-14T14:04:33.937Z,10.20
2019-04-14T14:07:04.494Z,10.30
2019-04-14T14:09:33.247Z,10.30
2019-04-14T14:12:40.805Z,10.30
2019-04-14T14:15:28.875Z,10.20
2019-04-14T14:18:22.924Z,10.30
2019-04-14T14:21:23.359Z,10.20
2019-04-14T14:24:17.984Z,10.60
2019-04-14T14:26:48.269Z,10.60
2019-04-14T14:29:17.135Z,10.50
2019-04-14T14:31:45.945Z,10.40
2019-04-14T14:34:14.888Z,10.30
2019-04-14T14:36:43.851Z,10.50
2019-04-14T14:39:15.079Z,10.50
2019-04-14T14:41:43.882Z,10.60
2019-04-14T14:44:12.675Z,10.70
2019-04-14T14:46:54.313Z,10.90
2019-04-14T14:49:46.386Z,10.80
2019-04-14T14:52:17.245Z,11.00
2019-04-14T14:54:46.011Z,10.90
2019-04-14T14:57:26.663Z,10.80
2019-04-14T14:59:55.991Z,10.80
2019-04-14T15:02:24.807Z,10.80
2019-04-14T15:04:53.678Z,10.90
2019-04-14T15:07:22.663Z,11.00
2019-04-14T15:09:53.363Z,10.80
2019-04-14T15:12:22.201Z,10.80
2019-04-14T15:14:50.980Z,10.80
2019-04-14T15:17:20.783Z,10.90
2019-04-14T15:19:50.238Z,11.00
2019-04-14T15:22:18.992Z,10.90
2019-04-14T15:24:47.890Z,10.80
2019-04-14T15:27:19.291Z,10.80
2019-04-14T15:29:48.065Z,10.70
2019-04-14T15:32:16.865Z,10.80
2019-04-14T15:34:45.579Z,10.90
2019-04-14T15:37:14.561Z,10.80
2019-04-14T15:39:43.348Z,10.80
2019-04-14T15:42:12.203Z,10.90
2019-04-14T15:44:41.007Z,10.90
2019-04-14T15:47:11.934Z,11.00
2019-04-14T15:49:41.804Z,10.90
2019-04-14T15:52:10.579Z,10.80
2019-04-14T15:54:39.388Z,10.60
2019-04-14T15:57:40.926Z,10.50
2019-04-14T16:00:31.887Z,10.50
2019-04-14T16:03:37.949Z,10.50
2019-04-14T16:06:24.345Z,10.50
2019-04-14T16:09:15.352Z,10.40
2019-04-14T16:12:01.817Z,10.50
2019-04-14T16:14:48.144Z,10.70
2019-04-14T16:17:37.467Z,10.70
2019-04-14T16:20:11.253Z,10.80
2019-04-14T16:22:40.051Z,10.70
2019-04-14T16:25:08.972Z,10.60
2019-04-14T16:27:47.389Z,10.60
2019-04-14T16:30:31.973Z,10.50
2019-04-14T16:33:10.317Z,10.50
2019-04-14T16:35:39.523Z,10.50
2019-04-14T16:38:08.408Z,10.60
2019-04-14T16:40:37.343Z,10.60
2019-04-14T16:43:06.981Z,10.50
2019-04-14T16:45:36.625Z,10.50
2019-04-14T16:48:06.546Z,10.50
2019-04-14T16:50:35.934Z,10.50
2019-04-14T16:53:25.133Z,10.50
2019-04-14T16:56:12.617Z,10.40
2019-04-14T16:58:49.879Z,10.40
2019-04-14T17:01:27.552Z,10.40
2019-04-14T17:03:56.353Z,10.40
2019-04-14T17:06:25.294Z,10.50
2019-04-14T17:08:54.251Z,10.60
2019-04-14T17:11:25.645Z,10.60
2019-04-14T17:14:04.558Z,10.50
2019-04-14T17:16:51.067Z,10.50
2019-04-14T17:19:57.201Z,10.60
2019-04-14T17:22:45.667Z,10.50
2019-04-14T17:25:23.221Z,10.50
2019-04-14T17:28:11.167Z,10.40
2019-04-14T17:31:03.065Z,10.30
2019-04-14T17:33:36.812Z,10.30
2019-04-14T17:36:14.922Z,10.20
2019-04-14T17:39:00.514Z,10.10
2019-04-14T17:41:38.281Z,10.00
2019-04-14T17:44:29.859Z,9.90
2019-04-14T17:47:11.215Z,9.90
2019-04-14T17:49:52.025Z,9.80
2019-04-14T17:52:29.737Z,9.70
2019-04-14T17:55:18.395Z,9.70
2019-04-14T17:58:03.079Z,9.50
2019-04-14T18:00:56.765Z,9.50
2019-04-14T18:03:37.721Z,9.40
2019-04-14T18:06:20.661Z,9.30
2019-04-14T18:09:06.534Z,9.30
2019-04-14T18:11:43.003Z,9.20
2019-04-14T18:14:18.960Z,9.20
2019-04-14T18:17:05.127Z,9.10
2019-04-14T18:19:49.499Z,9.00
2019-04-14T18:22:20.531Z,8.90
2019-04-14T18:24:49.282Z,8.90
2019-04-14T18:27:18.563Z,8.80
2019-04-14T18:30:06.527Z,8.80
2019-04-14T18:32:41.826Z,8.70
2019-04-14T18:35:26.976Z,8.70
2019-04-14T18:38:13.548Z,8.60
2019-04-14T18:41:17.987Z,8.60
2019-04-14T18:44:07.409Z,8.50
2019-04-14T18:47:13.069Z,8.40
2019-04-14T18:49:59.899Z,8.40
2019-04-14T18:52:52.496Z,8.30
2019-04-14T18:55:37.236Z,8.30
2019-04-14T18:58:19.867Z,8.30
2019-04-14T19:00:52.961Z,8.20
2019-04-14T19:03:21.800Z,8.20
2019-04-14T19:05:52.396Z,8.10
2019-04-14T19:08:21.417Z,8.10
2019-04-14T19:11:21.488Z,8.00
2019-04-14T19:13:52.128Z,8.00
2019-04-14T19:16:41.514Z,8.00
2019-04-14T19:19:10.339Z,8.00
2019-04-14T19:21:39.130Z,8.00
2019-04-14T19:24:07.872Z,8.10
2019-04-14T19:26:36.750Z,8.00
2019-04-14T19:29:05.512Z,8.00
2019-04-14T19:31:34.637Z,7.90
2019-04-14T19:34:03.595Z,7.90
2019-04-14T19:36:32.454Z,7.90
2019-04-14T19:39:01.343Z,7.90
2019-04-14T19:41:30.133Z,7.80
2019-04-14T19:43:58.923Z,7.70
2019-04-14T19:46:27.723Z,7.70
2019-04-14T19:48:56.657Z,7.70
2019-04-14T19:51:25.477Z,7.60
2019-04-14T19:53:54.369Z,7.60
2019-04-14T19:56:24.365Z,7.50
2019-04-14T19:58:57.020Z,7.40
2019-04-14T20:01:26.117Z,7.40
2019-04-14T20:03:55.955Z,7.30
2019-04-14T20:06:24.824Z,7.20
2019-04-14T20:08:53.751Z,7.20
2019-04-14T20:11:23.776Z,7.20
2019-04-14T20:13:52.572Z,7.20
2019-04-14T20:16:38.438Z,7.10
2019-04-14T20:19:32.574Z,7.10
2019-04-14T20:22:33.289Z,7.00
2019-04-14T20:25:32.827Z,7.00
2019-04-14T20:27:55.663Z,7.00
2019-04-14T20:30:40.767Z,6.90
2019-04-14T20:33:09.807Z,6.90
2019-04-14T20:35:38.567Z,6.80
2019-04-14T20:38:08.932Z,6.80
2019-04-14T20:40:38.387Z,6.70
2019-04-14T20:43:08.591Z,6.70
2019-04-14T20:45:38.529Z,6.70
2019-04-14T20:48:10.081Z,6.60
2019-04-14T20:50:39.799Z,6.50
2019-04-14T20:53:08.567Z,6.50
2019-04-14T20:55:46.717Z,6.50
2019-04-14T20:58:10.240Z,6.50
2019-04-14T21:00:39.573Z,6.50
2019-04-14T21:03:36.413Z,6.50
2019-04-14T21:06:26.544Z,6.50
2019-04-14T21:09:07.689Z,6.40
2019-04-14T21:11:47.435Z,6.20
2019-04-14T21:14:27.511Z,6.20
2019-04-14T21:17:00.362Z,6.20
2019-04-14T21:19:34.735Z,6.20
2019-04-14T21:22:12.183Z,6.10
2019-04-14T21:25:00.447Z,6.10
2019-04-14T21:27:49.403Z,6.10
2019-04-14T21:30:26.279Z,6.10
2019-04-14T21:33:19.604Z,6.10
2019-04-14T21:36:03.688Z,6.10
2019-04-14T21:38:54.001Z,6.10
2019-04-14T21:41:25.956Z,6.00
2019-04-14T21:43:55.099Z,6.00
2019-04-14T21:46:23.965Z,6.00
2019-04-14T21:48:52.929Z,6.00
2019-04-14T21:51:36.011Z,6.00
2019-04-14T21:54:04.850Z,6.00
2019-04-14T21:56:34.359Z,6.10
2019-04-14T21:59:09.633Z,6.10
2019-04-14T22:01:58.584Z,6.10
2019-04-14T22:04:46.574Z,6.10
2019-04-14T22:07:46.818Z,6.10
2019-04-14T22:10:41.180Z,6.10
2019-04-14T22:13:10.336Z,6.20
2019-04-14T22:15:39.128Z,6.20
2019-04-14T22:18:08.207Z,6.20
2019-04-14T22:20:37.087Z,6.20
2019-04-14T22:23:08.954Z,6.20
2019-04-14T22:25:37.758Z,6.20
2019-04-14T22:28:06.708Z,6.10
2019-04-14T22:30:35.919Z,6.10
2019-04-14T22:33:05.160Z,6.00
2019-04-14T22:35:33.976Z,6.00
2019-04-14T22:38:02.890Z,5.90
2019-04-14T22:40:31.726Z,5.90
2019-04-14T22:43:00.681Z,5.90
2019-04-14T22:45:29.468Z,5.90
2019-04-14T22:48:00.382Z,5.90
2019-04-14T22:50:29.124Z,5.80
2019-04-14T22:52:57.980Z,5.80
2019-04-14T22:55:27.019Z,5.80
2019-04-14T22:57:55.916Z,5.80
2019-04-14T23:00:56.240Z,5.80
2019-04-14T23:03:42.952Z,5.80
2019-04-14T23:06:27.458Z,5.80
2019-04-14T23:09:00.881Z,5.70
2019-04-14T23:11:44.092Z,5.70
2019-04-14T23:14:22.406Z,5.60
2019-04-14T23:17:09.077Z,5.50
2019-04-14T23:19:43.412Z,5.50
2019-04-14T23:22:24.066Z,5.50
2019-04-14T23:24:52.829Z,5.50
2019-04-14T23:27:21.929Z,5.50
2019-04-14T23:29:50.706Z,5.50
2019-04-14T23:32:19.557Z,5.50
2019-04-14T23:34:48.340Z,5.40
2019-04-14T23:37:17.191Z,5.50
2019-04-14T23:39:46.078Z,5.50
2019-04-14T23:42:14.889Z,5.50
2019-04-14T23:44:43.684Z,5.50
2019-04-14T23:47:12.573Z,5.50
2019-04-14T23:49:41.367Z,5.40
2019-04-14T23:52:10.178Z,5.40
2019-04-14T23:54:38.973Z,5.40
2019-04-14T23:57:07.961Z,5.30
2019-04-14T23:59:36.910Z,5.30
